createdAt,value
2023-04-11T00:00:18.065Z,100.00
2023-04-11T00:03:23.098Z,100.00
2023-04-11T00:06:26.244Z,100.00
2023-04-11T00:09:27.914Z,100.00
2023-04-11T00:12:29.492Z,100.00
2023-04-11T00:15:32.732Z,100.00
2023-04-11T00:18:36.253Z,100.00
2023-04-11T00:21:44.165Z,100.00
2023-04-11T00:24:45.831Z,100.00
2023-04-11T00:27:47.511Z,100.00
2023-04-11T00:30:49.024Z,100.00
2023-04-11T00:33:51.126Z,100.00
2023-04-11T00:36:54.551Z,100.00
2023-04-11T00:39:56.399Z,100.00
2023-04-11T00:42:58.308Z,100.00
2023-04-11T00:46:01.216Z,100.00
2023-04-11T00:49:02.990Z,100.00
2023-04-11T00:52:06.595Z,100.00
2023-04-11T00:55:09.799Z,100.00
2023-04-11T00:58:12.549Z,100.00
2023-04-11T01:01:14.386Z,100.00
2023-04-11T01:04:19.077Z,100.00
2023-04-11T01:07:22.468Z,100.00
2023-04-11T01:10:24.838Z,100.00
2023-04-11T01:13:27.000Z,100.00
2023-04-11T01:16:28.987Z,100.00
2023-04-11T01:19:31.003Z,100.00
2023-04-11T01:22:34.278Z,100.00
2023-04-11T01:25:38.809Z,100.00
2023-04-11T01:28:40.761Z,100.00
2023-04-11T01:31:42.539Z,100.00
2023-04-11T01:34:47.121Z,100.00
2023-04-11T01:37:48.824Z,100.00
2023-04-11T01:40:52.128Z,100.00
2023-04-11T01:43:54.226Z,100.00
2023-04-11T01:46:59.064Z,100.00
2023-04-11T01:50:01.021Z,100.00
2023-04-11T01:53:02.584Z,100.00
2023-04-11T01:56:06.938Z,100.00
2023-04-11T01:59:08.459Z,100.00
2023-04-11T02:02:10.502Z,100.00
2023-04-11T02:05:12.384Z,100.00
2023-04-11T02:08:14.039Z,100.00
2023-04-11T02:11:16.947Z,100.00
2023-04-11T02:14:20.411Z,100.00
2023-04-11T02:17:25.934Z,100.00
2023-04-11T02:20:28.050Z,100.00
2023-04-11T02:23:29.671Z,100.00
2023-04-11T02:26:33.077Z,100.00
2023-04-11T02:29:34.932Z,100.00
2023-04-11T02:32:37.817Z,100.00
2023-04-11T02:35:39.547Z,100.00
2023-04-11T02:38:41.247Z,100.00
2023-04-11T02:41:44.374Z,100.00
2023-04-11T02:44:46.220Z,100.00
2023-04-11T02:47:48.482Z,100.00
2023-04-11T02:50:50.644Z,100.00
2023-04-11T02:53:53.016Z,100.00
2023-04-11T02:56:59.185Z,100.00
2023-04-11T03:00:00.757Z,100.00
2023-04-11T03:03:13.540Z,100.00
2023-04-11T03:06:18.659Z,100.00
2023-04-11T03:09:23.472Z,100.00
2023-04-11T03:12:26.775Z,100.00
2023-04-11T03:15:34.236Z,100.00
2023-04-11T03:18:40.664Z,100.00
2023-04-11T03:21:45.674Z,100.00
2023-04-11T03:24:49.831Z,100.00
2023-04-11T03:27:55.478Z,100.00
2023-04-11T03:30:57.849Z,100.00
2023-04-11T03:34:00.937Z,100.00
2023-04-11T03:37:02.607Z,100.00
2023-04-11T03:40:08.414Z,100.00
2023-04-11T03:43:13.901Z,100.00
2023-04-11T03:46:15.992Z,100.00
2023-04-11T03:49:21.386Z,100.00
2023-04-11T03:52:28.774Z,100.00
2023-04-11T03:55:31.993Z,100.00
2023-04-11T03:58:37.039Z,100.00
2023-04-11T04:01:40.037Z,100.00
2023-04-11T04:04:44.366Z,100.00
2023-04-11T04:07:59.914Z,100.00
2023-04-11T04:11:31.129Z,100.00
2023-04-11T04:14:38.092Z,100.00
2023-04-11T04:17:40.227Z,100.00
2023-04-11T04:20:46.641Z,100.00
2023-04-11T04:23:49.798Z,100.00
2023-04-11T04:27:01.046Z,100.00
2023-04-11T04:30:15.783Z,100.00
2023-04-11T04:33:33.274Z,100.00
2023-04-11T04:36:49.375Z,100.00
2023-04-11T04:40:02.401Z,100.00
2023-04-11T04:43:09.313Z,100.00
2023-04-11T04:46:23.634Z,100.00
2023-04-11T04:49:26.714Z,100.00
2023-04-11T04:52:29.032Z,100.00
2023-04-11T04:55:31.299Z,100.00
2023-04-11T04:58:34.636Z,100.00
2023-04-11T05:01:40.642Z,100.00
2023-04-11T05:04:47.080Z,100.00
2023-04-11T05:07:49.443Z,100.00
2023-04-11T05:10:52.206Z,100.00
2023-04-11T05:13:54.416Z,100.00
2023-04-11T05:16:57.936Z,100.00
2023-04-11T05:19:59.920Z,100.00
2023-04-11T05:23:02.557Z,100.00
2023-04-11T05:26:06.241Z,100.00
2023-04-11T05:29:08.912Z,100.00
2023-04-11T05:32:12.673Z,100.00
2023-04-11T05:35:14.377Z,100.00
2023-04-11T05:38:21.974Z,100.00
2023-04-11T05:41:24.343Z,100.00
2023-04-11T05:44:26.033Z,100.00
2023-04-11T05:50:49.481Z,100.00
2023-04-11T05:53:51.066Z,100.00
2023-04-11T05:56:52.809Z,100.00
2023-04-11T05:59:54.388Z,100.00
2023-04-11T06:02:56.147Z,100.00
2023-04-11T06:06:00.031Z,100.00
2023-04-11T06:09:01.634Z,100.00
2023-04-11T06:12:03.528Z,100.00
2023-04-11T06:15:06.203Z,100.00
2023-04-11T06:18:07.803Z,100.00
2023-04-11T06:21:10.792Z,100.00
2023-04-11T06:24:12.365Z,100.00
2023-04-11T06:27:14.425Z,100.00
2023-04-11T06:30:16.029Z,100.00
2023-04-11T06:33:17.583Z,100.00
2023-04-11T06:36:20.613Z,100.00
2023-04-11T06:39:23.371Z,100.00
2023-04-11T06:42:28.010Z,100.00
2023-04-11T06:45:29.762Z,100.00
2023-04-11T06:48:31.592Z,100.00
2023-04-11T06:51:34.677Z,100.00
2023-04-11T06:54:36.469Z,100.00
2023-04-11T06:57:38.386Z,100.00
2023-04-11T07:00:40.063Z,100.00
2023-04-11T07:03:42.034Z,100.00
2023-04-11T07:06:45.859Z,100.00
2023-04-11T07:09:48.012Z,100.00
2023-04-11T07:12:49.743Z,100.00
2023-04-11T07:15:51.880Z,100.00
2023-04-11T07:18:53.589Z,100.00
2023-04-11T07:21:56.822Z,100.00
2023-04-11T07:24:58.531Z,100.00
2023-04-11T07:28:00.644Z,100.00
2023-04-11T07:31:02.298Z,100.00
2023-04-11T07:34:03.918Z,100.00
2023-04-11T07:37:07.122Z,100.00
2023-04-11T07:40:12.129Z,100.00
2023-04-11T07:43:13.653Z,100.00
2023-04-11T07:46:15.711Z,100.00
2023-04-11T07:49:17.313Z,100.00
2023-04-11T07:52:20.453Z,100.00
2023-04-11T07:55:21.978Z,100.00
2023-04-11T07:58:23.555Z,100.00
2023-04-11T08:01:25.787Z,100.00
2023-04-11T08:04:31.012Z,100.00
2023-04-11T08:07:34.231Z,100.00
2023-04-11T08:10:35.938Z,100.00
2023-04-11T08:13:37.985Z,100.00
2023-04-11T08:16:39.661Z,100.00
2023-04-11T08:19:41.436Z,100.00
2023-04-11T08:22:44.901Z,100.00
2023-04-11T08:25:46.768Z,100.00
2023-04-11T08:28:48.463Z,100.00
2023-04-11T08:31:50.293Z,100.00
2023-04-11T08:34:51.848Z,100.00
2023-04-11T08:37:55.040Z,100.00
2023-04-11T08:40:56.679Z,100.00
2023-04-11T08:43:58.905Z,100.00
2023-04-11T08:47:00.617Z,100.00
2023-04-11T08:50:02.136Z,100.00
2023-04-11T08:53:08.276Z,100.00
2023-04-11T08:56:14.507Z,100.00
2023-04-11T08:59:17.608Z,100.00
2023-04-11T09:02:19.748Z,100.00
2023-04-11T09:05:24.361Z,100.00
2023-04-11T09:08:37.495Z,100.00
2023-04-11T09:11:51.612Z,100.00
2023-04-11T09:14:53.310Z,100.00
2023-04-11T09:17:56.984Z,100.00
2023-04-11T09:21:01.038Z,99.01
2023-04-11T09:24:15.652Z,99.84
2023-04-11T09:27:20.303Z,94.75
2023-04-11T09:30:23.114Z,96.55
2023-04-11T09:33:26.498Z,95.53
2023-04-11T09:36:28.627Z,93.38
2023-04-11T09:39:32.629Z,91.36
2023-04-11T09:42:34.690Z,92.08
2023-04-11T09:45:47.790Z,92.95
2023-04-11T09:48:54.766Z,87.90
2023-04-11T09:51:57.789Z,87.02
2023-04-11T09:55:01.194Z,86.06
2023-04-11T09:58:05.718Z,84.55
2023-04-11T10:01:09.140Z,84.07
2023-04-11T10:04:12.900Z,82.67
2023-04-11T10:07:17.025Z,77.85
2023-04-11T10:10:21.098Z,77.71
2023-04-11T10:13:45.124Z,73.91
2023-04-11T10:17:01.580Z,74.56
2023-04-11T10:20:23.116Z,77.47
2023-04-11T10:23:24.920Z,76.83
2023-04-11T10:26:45.488Z,77.20
2023-04-11T10:29:51.859Z,78.40
2023-04-11T10:33:09.677Z,79.67
2023-04-11T10:36:12.321Z,75.78
2023-04-11T10:39:14.093Z,77.95
2023-04-11T10:42:29.806Z,77.96
2023-04-11T10:45:32.441Z,75.71
2023-04-11T10:48:54.107Z,76.35
2023-04-11T10:52:16.326Z,75.07
2023-04-11T10:55:18.431Z,76.21
2023-04-11T10:58:21.587Z,76.60
2023-04-11T11:01:32.173Z,75.69
2023-04-11T11:04:44.270Z,74.68
2023-04-11T11:07:48.005Z,75.69
2023-04-11T11:10:50.361Z,78.89
2023-04-11T11:13:52.927Z,78.71
2023-04-11T11:16:54.566Z,77.91
2023-04-11T11:19:56.635Z,78.35
2023-04-11T11:23:06.344Z,79.00
2023-04-11T11:26:08.008Z,78.60
2023-04-11T11:29:10.277Z,75.10
2023-04-11T11:32:20.459Z,76.50
2023-04-11T11:35:22.174Z,79.02
2023-04-11T11:38:27.188Z,82.13
2023-04-11T11:41:28.724Z,83.05
2023-04-11T11:44:31.142Z,84.93
2023-04-11T11:47:41.620Z,86.60
2023-04-11T11:50:43.218Z,89.95
2023-04-11T11:54:03.729Z,90.73
2023-04-11T11:57:05.252Z,92.22
2023-04-11T12:00:10.590Z,97.17
2023-04-11T12:03:12.542Z,98.42
2023-04-11T12:06:16.204Z,97.59
2023-04-11T12:09:19.089Z,99.08
2023-04-11T12:12:20.722Z,99.44
2023-04-11T12:15:23.677Z,96.33
2023-04-11T12:18:29.217Z,94.43
2023-04-11T12:21:31.216Z,91.20
2023-04-11T12:24:34.360Z,86.63
2023-04-11T12:27:38.506Z,81.77
2023-04-11T12:30:40.080Z,76.46
2023-04-11T12:33:41.789Z,71.16
2023-04-11T12:36:43.325Z,66.02
2023-04-11T12:39:46.400Z,68.90
2023-04-11T12:42:56.895Z,70.66
2023-04-11T12:45:58.668Z,64.94
2023-04-11T12:49:00.843Z,62.00
2023-04-11T12:52:02.917Z,62.42
2023-04-11T12:55:07.336Z,64.51
2023-04-11T12:58:09.478Z,63.18
2023-04-11T13:01:11.310Z,61.72
2023-04-11T13:04:13.021Z,59.21
2023-04-11T13:07:14.770Z,61.42
2023-04-11T13:10:17.660Z,64.10
2023-04-11T13:13:19.260Z,71.34
2023-04-11T13:16:21.302Z,77.11
2023-04-11T13:19:23.137Z,80.90
2023-04-11T13:22:24.671Z,83.97
2023-04-11T13:25:29.841Z,85.48
2023-04-11T13:28:31.956Z,86.06
2023-04-11T13:31:33.626Z,86.34
2023-04-11T13:34:35.728Z,87.90
2023-04-11T13:37:37.522Z,85.65
2023-04-11T13:40:41.204Z,85.56
2023-04-11T13:43:42.942Z,84.39
2023-04-11T13:46:46.754Z,80.75
2023-04-11T13:49:48.372Z,69.38
2023-04-11T13:52:50.185Z,69.64
2023-04-11T13:55:53.088Z,66.95
2023-04-11T13:58:54.776Z,66.95
2023-04-11T14:01:56.658Z,63.97
2023-04-11T14:04:58.313Z,61.69
2023-04-11T14:07:59.989Z,62.99
2023-04-11T14:11:03.350Z,61.47
2023-04-11T14:14:04.829Z,59.81
2023-04-11T14:17:06.385Z,58.29
2023-04-11T14:20:09.233Z,61.39
2023-04-11T14:23:10.971Z,58.86
2023-04-11T14:26:14.053Z,57.09
2023-04-11T14:29:15.881Z,59.00
2023-04-11T14:32:18.336Z,57.13
2023-04-11T14:35:20.042Z,53.09
2023-04-11T14:38:21.618Z,52.54
2023-04-11T14:41:24.890Z,51.71
2023-04-11T14:44:27.996Z,52.67
2023-04-11T14:47:30.676Z,53.85
2023-04-11T14:50:32.166Z,52.03
2023-04-11T14:53:33.789Z,52.27
2023-04-11T14:56:37.108Z,47.36
2023-04-11T14:59:38.853Z,45.58
2023-04-11T15:02:40.576Z,46.53
2023-04-11T15:05:42.392Z,48.41
2023-04-11T15:08:43.943Z,45.73
2023-04-11T15:11:46.933Z,45.58
2023-04-11T15:14:49.001Z,46.83
2023-04-11T15:18:11.154Z,47.44
2023-04-11T15:21:12.623Z,44.76
2023-04-11T15:24:14.193Z,46.31
2023-04-11T15:27:17.062Z,46.41
2023-04-11T15:30:20.531Z,47.68
2023-04-11T15:33:23.889Z,48.07
2023-04-11T15:36:25.665Z,47.42
2023-04-11T15:39:27.260Z,46.54
2023-04-11T15:42:30.134Z,47.04
2023-04-11T15:45:31.929Z,45.78
2023-04-11T15:48:33.505Z,46.97
2023-04-11T15:51:35.044Z,46.33
2023-04-11T15:54:36.667Z,46.46
2023-04-11T15:57:43.104Z,46.74
2023-04-11T16:00:45.063Z,45.74
2023-04-11T16:03:46.927Z,47.16
2023-04-11T16:06:48.773Z,47.94
2023-04-11T16:09:50.285Z,46.98
2023-04-11T16:12:53.348Z,47.21
2023-04-11T16:15:54.815Z,47.08
2023-04-11T16:18:56.400Z,48.14
2023-04-11T16:21:58.063Z,46.33
2023-04-11T16:25:01.432Z,47.86
2023-04-11T16:28:04.463Z,46.93
2023-04-11T16:31:06.325Z,47.23
2023-04-11T16:34:07.861Z,47.90
2023-04-11T16:37:09.801Z,46.49
2023-04-11T16:40:11.889Z,47.00
2023-04-11T16:43:14.925Z,45.49
2023-04-11T16:46:16.610Z,46.35
2023-04-11T16:49:18.298Z,46.35
2023-04-11T16:52:19.920Z,47.45
2023-04-11T16:55:21.382Z,47.78
2023-04-11T16:58:24.357Z,47.65
2023-04-11T17:01:25.921Z,44.81
2023-04-11T17:04:27.620Z,45.35
2023-04-11T17:07:29.339Z,45.42
2023-04-11T17:10:31.012Z,44.54
2023-04-11T17:13:34.672Z,44.14
2023-04-11T17:16:36.225Z,44.26
2023-04-11T17:19:37.785Z,44.89
2023-04-11T17:22:41.562Z,43.94
2023-04-11T17:25:43.189Z,44.58
2023-04-11T17:28:47.017Z,44.76
2023-04-11T17:31:48.662Z,44.23
2023-04-11T17:34:51.117Z,44.62
2023-04-11T17:37:52.671Z,45.43
2023-04-11T17:41:00.212Z,46.21
2023-04-11T17:44:10.154Z,46.61
2023-04-11T17:47:11.934Z,47.34
2023-04-11T17:50:13.976Z,47.62
2023-04-11T17:53:16.009Z,48.19
2023-04-11T17:56:17.542Z,48.59
2023-04-11T17:59:21.129Z,48.30
2023-04-11T18:02:22.865Z,48.76
2023-04-11T18:05:26.508Z,49.64
2023-04-11T18:08:43.305Z,49.93
2023-04-11T18:11:50.045Z,50.25
2023-04-11T18:14:54.385Z,50.42
2023-04-11T18:17:56.199Z,50.40
2023-04-11T18:21:01.811Z,50.79
2023-04-11T18:24:04.120Z,50.73
2023-04-11T18:27:05.839Z,51.15
2023-04-11T18:30:10.629Z,52.03
2023-04-11T18:33:12.311Z,52.48
2023-04-11T18:36:13.945Z,52.25
2023-04-11T18:39:15.854Z,51.67
2023-04-11T18:42:17.457Z,50.59
2023-04-11T18:45:21.835Z,51.08
2023-04-11T18:48:23.543Z,51.23
2023-04-11T18:51:25.447Z,51.42
2023-04-11T18:54:26.947Z,51.49
2023-04-11T18:57:33.398Z,51.37
2023-04-11T19:00:38.879Z,51.25
2023-04-11T19:03:41.375Z,53.14
2023-04-11T19:06:43.261Z,54.69
2023-04-11T19:09:47.001Z,54.66
2023-04-11T19:12:48.673Z,55.04
2023-04-11T19:15:51.906Z,54.79
2023-04-11T19:18:53.380Z,56.07
2023-04-11T19:21:55.446Z,56.77
2023-04-11T19:24:57.051Z,56.87
2023-04-11T19:27:58.591Z,57.44
2023-04-11T19:31:01.477Z,58.71
2023-04-11T19:34:04.751Z,59.00
2023-04-11T19:37:06.979Z,60.13
2023-04-11T19:40:11.394Z,60.48
2023-04-11T19:43:13.094Z,60.58
2023-04-11T19:46:16.387Z,60.98
2023-04-11T19:49:18.038Z,61.45
2023-04-11T19:52:19.798Z,62.11
2023-04-11T19:55:21.563Z,62.81
2023-04-11T19:58:23.906Z,62.74
2023-04-11T20:01:28.401Z,62.89
2023-04-11T20:04:29.992Z,64.23
2023-04-11T20:07:31.582Z,65.34
2023-04-11T20:10:34.234Z,65.22
2023-04-11T20:13:37.824Z,66.13
2023-04-11T20:16:40.902Z,65.02
2023-04-11T20:19:44.377Z,65.55
2023-04-11T20:22:46.445Z,64.85
2023-04-11T20:25:47.985Z,65.02
2023-04-11T20:28:50.460Z,64.50
2023-04-11T20:31:53.593Z,63.51
2023-04-11T20:34:55.215Z,64.55
2023-04-11T20:37:57.087Z,66.05
2023-04-11T20:40:58.767Z,65.98
2023-04-11T20:44:00.755Z,64.65
2023-04-11T20:47:03.679Z,65.98
2023-04-11T20:50:05.558Z,66.86
2023-04-11T20:53:07.114Z,68.03
2023-04-11T20:56:08.948Z,69.15
2023-04-11T20:59:12.361Z,67.76
2023-04-11T21:02:16.464Z,67.35
2023-04-11T21:05:18.713Z,67.61
2023-04-11T21:08:20.565Z,67.99
2023-04-11T21:11:22.262Z,68.33
2023-04-11T21:14:23.777Z,69.26
2023-04-11T21:17:26.783Z,69.87
2023-04-11T21:20:28.898Z,68.31
2023-04-11T21:23:30.604Z,68.63
2023-04-11T21:26:32.303Z,68.96
2023-04-11T21:29:33.791Z,67.74
2023-04-11T21:32:37.072Z,66.95
2023-04-11T21:35:38.736Z,67.58
2023-04-11T21:38:40.868Z,68.20
2023-04-11T21:41:42.429Z,68.32
2023-04-11T21:44:44.015Z,68.99
2023-04-11T21:47:47.261Z,68.25
2023-04-11T21:50:49.022Z,68.51
2023-04-11T21:53:50.817Z,68.30
2023-04-11T21:56:52.529Z,68.87
2023-04-11T21:59:54.106Z,69.89
2023-04-11T22:02:57.450Z,69.54
2023-04-11T22:05:59.398Z,69.52
2023-04-11T22:09:01.320Z,69.45
2023-04-11T22:12:03.753Z,70.33
2023-04-11T22:15:06.661Z,69.98
2023-04-11T22:18:10.146Z,69.72
2023-04-11T22:21:13.483Z,70.20
2023-04-11T22:24:15.834Z,69.53
2023-04-11T22:27:18.317Z,69.68
2023-04-11T22:30:22.013Z,69.68
2023-04-11T22:33:25.123Z,70.09
2023-04-11T22:36:27.138Z,69.18
2023-04-11T22:39:28.905Z,70.68
2023-04-11T22:42:30.775Z,71.02
2023-04-11T22:45:36.033Z,69.75
2023-04-11T22:48:39.084Z,69.51
2023-04-11T22:51:40.742Z,69.44
2023-04-11T22:54:42.777Z,69.59
2023-04-11T22:57:44.685Z,69.63
2023-04-11T23:00:47.529Z,70.68
2023-04-11T23:03:50.422Z,70.79
2023-04-11T23:06:52.175Z,70.70
2023-04-11T23:09:53.828Z,71.05
2023-04-11T23:12:55.904Z,71.70
2023-04-11T23:15:59.704Z,71.47
2023-04-11T23:19:03.942Z,70.91
2023-04-11T23:22:06.337Z,70.38
2023-04-11T23:25:08.405Z,69.84
2023-04-11T23:28:09.901Z,70.06
2023-04-11T23:31:11.436Z,69.33
2023-04-11T23:34:14.801Z,69.65
2023-04-11T23:37:16.674Z,69.59
2023-04-11T23:40:18.364Z,69.56
2023-04-11T23:43:19.947Z,70.17
2023-04-11T23:46:21.887Z,70.77
2023-04-11T23:49:24.920Z,70.46
2023-04-11T23:52:26.752Z,70.84
2023-04-11T23:55:28.463Z,71.05
2023-04-11T23:58:30.129Z,71.83
